sensor_id;sensor_type;location;lat;lon;timestamp;pressure;altitude;pressure_sealevel;temperature;humidity
12073;BME280;6098;49.004;8.372;2023-05-11T00:11:19;100214.64;;;13.84;82.96
12073;BME280;6098;49.004;8.372;2023-05-11T00:26:11;100217.66;;;13.77;82.99
12073;BME280;6098;49.004;8.372;2023-05-11T00:41:01;100209.63;;;13.70;83.03
12073;BME280;6098;49.004;8.372;2023-05-11T00:55:53;100200.08;;;13.66;83.52
12073;BME280;6098;49.004;8.372;2023-05-11T01:10:50;100203.59;;;13.59;83.92
12073;BME280;6098;49.004;8.372;2023-05-11T01:40:35;100199.22;;;13.49;82.96
12073;BME280;6098;49.004;8.372;2023-05-11T01:55:27;100196.67;;;13.47;83.41
12073;BME280;6098;49.004;8.372;2023-05-11T02:25:33;100209.81;;;13.34;84.50
12073;BME280;6098;49.004;8.372;2023-05-11T02:40:32;100200.34;;;13.28;84.48
12073;BME280;6098;49.004;8.372;2023-05-11T02:55:26;100208.67;;;13.22;84.91
12073;BME280;6098;49.004;8.372;2023-05-11T03:10:18;100202.22;;;13.18;85.35
12073;BME280;6098;49.004;8.372;2023-05-11T03:25:10;100202.73;;;13.09;85.93
12073;BME280;6098;49.004;8.372;2023-05-11T03:40:01;100199.56;;;13.01;86.26
12073;BME280;6098;49.004;8.372;2023-05-11T03:54:52;100195.45;;;12.94;86.54
12073;BME280;6098;49.004;8.372;2023-05-11T04:09:44;100197.80;;;12.83;86.57
12073;BME280;6098;49.004;8.372;2023-05-11T04:24:35;100199.64;;;12.82;86.82
12073;BME280;6098;49.004;8.372;2023-05-11T04:39:26;100198.66;;;12.84;87.13
12073;BME280;6098;49.004;8.372;2023-05-11T04:54:19;100203.09;;;12.84;87.34
12073;BME280;6098;49.004;8.372;2023-05-11T05:09:11;100206.02;;;12.87;87.09
12073;BME280;6098;49.004;8.372;2023-05-11T05:24:03;100216.73;;;12.86;86.35
12073;BME280;6098;49.004;8.372;2023-05-11T05:38:56;100224.30;;;13.03;86.26
12073;BME280;6098;49.004;8.372;2023-05-11T05:53:47;100227.61;;;13.08;85.89
12073;BME280;6098;49.004;8.372;2023-05-11T06:08:38;100236.27;;;13.12;85.35
12073;BME280;6098;49.004;8.372;2023-05-11T06:23:29;100241.23;;;13.27;84.79
12073;BME280;6098;49.004;8.372;2023-05-11T06:38:21;100231.52;;;13.35;83.54
12073;BME280;6098;49.004;8.372;2023-05-11T06:53:14;100230.88;;;13.63;82.70
12073;BME280;6098;49.004;8.372;2023-05-11T07:08:06;100241.82;;;13.74;80.55
12073;BME280;6098;49.004;8.372;2023-05-11T07:22:58;100246.64;;;13.92;79.53
12073;BME280;6098;49.004;8.372;2023-05-11T07:37:50;100253.70;;;13.92;79.99
12073;BME280;6098;49.004;8.372;2023-05-11T07:52:42;100259.32;;;13.95;79.18
12073;BME280;6098;49.004;8.372;2023-05-11T08:07:34;100254.83;;;14.12;76.96
12073;BME280;6098;49.004;8.372;2023-05-11T08:22:26;100258.63;;;14.24;76.97
12073;BME280;6098;49.004;8.372;2023-05-11T08:37:18;100255.54;;;14.39;76.62
12073;BME280;6098;49.004;8.372;2023-05-11T08:52:11;100258.61;;;14.40;76.45
12073;BME280;6098;49.004;8.372;2023-05-11T09:07:02;100257.75;;;14.47;76.42
12073;BME280;6098;49.004;8.372;2023-05-11T09:21:54;100258.88;;;14.81;76.46
12073;BME280;6098;49.004;8.372;2023-05-11T09:36:48;100252.22;;;14.96;74.22
12073;BME280;6098;49.004;8.372;2023-05-11T09:51:40;100255.84;;;15.25;73.12
12073;BME280;6098;49.004;8.372;2023-05-11T10:06:44;100248.05;;;15.51;70.71
12073;BME280;6098;49.004;8.372;2023-05-11T10:21:40;100242.10;;;15.61;69.44
12073;BME280;6098;49.004;8.372;2023-05-11T10:36:33;100232.73;;;16.03;68.76
12073;BME280;6098;49.004;8.372;2023-05-11T10:51:40;100226.78;;;16.26;67.80
12073;BME280;6098;49.004;8.372;2023-05-11T11:06:37;100223.86;;;16.30;67.88
12073;BME280;6098;49.004;8.372;2023-05-11T11:21:40;100220.95;;;16.47;66.33
12073;BME280;6098;49.004;8.372;2023-05-11T11:51:52;100192.31;;;16.55;65.92
12073;BME280;6098;49.004;8.372;2023-05-11T12:06:46;100191.19;;;16.79;64.55
12073;BME280;6098;49.004;8.372;2023-05-11T12:21:38;100179.78;;;17.21;63.91
12073;BME280;6098;49.004;8.372;2023-05-11T12:36:32;100163.73;;;17.14;62.67
12073;BME280;6098;49.004;8.372;2023-05-11T12:51:45;100154.20;;;17.29;61.58
12073;BME280;6098;49.004;8.372;2023-05-11T13:06:45;100137.73;;;17.35;60.67
12073;BME280;6098;49.004;8.372;2023-05-11T13:21:41;100118.17;;;17.89;58.81
12073;BME280;6098;49.004;8.372;2023-05-11T13:36:32;100106.69;;;17.93;54.77
12073;BME280;6098;49.004;8.372;2023-05-11T13:51:26;100097.22;;;18.36;54.75
12073;BME280;6098;49.004;8.372;2023-05-11T14:06:22;100080.05;;;18.27;52.39
12073;BME280;6098;49.004;8.372;2023-05-11T14:21:18;100079.42;;;18.64;54.52
12073;BME280;6098;49.004;8.372;2023-05-11T14:36:11;100061.77;;;19.07;53.03
12073;BME280;6098;49.004;8.372;2023-05-11T14:51:03;100064.02;;;19.01;51.98
12073;BME280;6098;49.004;8.372;2023-05-11T15:05:55;100059.46;;;18.62;53.02
12073;BME280;6098;49.004;8.372;2023-05-11T15:20:48;100058.58;;;19.01;53.51
12073;BME280;6098;49.004;8.372;2023-05-11T15:35:41;100059.50;;;19.79;50.84
12073;BME280;6098;49.004;8.372;2023-05-11T15:50:33;100053.95;;;19.26;50.75
12073;BME280;6098;49.004;8.372;2023-05-11T16:05:23;100065.97;;;18.70;50.67
12073;BME280;6098;49.004;8.372;2023-05-11T16:20:13;100057.67;;;18.79;51.50
12073;BME280;6098;49.004;8.372;2023-05-11T16:35:05;100047.32;;;18.57;51.72
12073;BME280;6098;49.004;8.372;2023-05-11T16:49:58;100036.98;;;18.40;53.44
12073;BME280;6098;49.004;8.372;2023-05-11T17:04:50;100046.19;;;18.25;53.94
12073;BME280;6098;49.004;8.372;2023-05-11T17:19:41;100048.16;;;18.17;54.30
12073;BME280;6098;49.004;8.372;2023-05-11T17:34:32;100059.41;;;17.98;54.69
12073;BME280;6098;49.004;8.372;2023-05-11T17:49:24;100059.92;;;17.61;56.29
12073;BME280;6098;49.004;8.372;2023-05-11T18:04:15;100065.04;;;17.34;57.43
12073;BME280;6098;49.004;8.372;2023-05-11T18:19:06;100086.14;;;17.19;58.29
12073;BME280;6098;49.004;8.372;2023-05-11T18:33:57;100079.39;;;16.95;57.95
12073;BME280;6098;49.004;8.372;2023-05-11T18:48:48;100083.30;;;16.71;59.83
12073;BME280;6098;49.004;8.372;2023-05-11T19:03:44;100092.73;;;16.51;63.27
12073;BME280;6098;49.004;8.372;2023-05-11T19:18:37;100106.53;;;16.24;64.48
12073;BME280;6098;49.004;8.372;2023-05-11T19:33:27;100116.71;;;16.05;65.81
12073;BME280;6098;49.004;8.372;2023-05-11T19:48:19;100126.88;;;15.86;67.10
12073;BME280;6098;49.004;8.372;2023-05-11T20:03:11;100142.90;;;15.66;71.64
12073;BME280;6098;49.004;8.372;2023-05-11T20:18:03;100144.33;;;15.50;73.40
12073;BME280;6098;49.004;8.372;2023-05-11T20:32:54;100145.58;;;15.37;74.18
12073;BME280;6098;49.004;8.372;2023-05-11T20:47:46;100148.39;;;15.14;76.57
12073;BME280;6098;49.004;8.372;2023-05-11T21:02:38;100154.28;;;14.90;80.15
12073;BME280;6098;49.004;8.372;2023-05-11T21:17:30;100143.20;;;14.60;83.10
12073;BME280;6098;49.004;8.372;2023-05-11T21:32:22;100145.70;;;14.48;85.33
12073;BME280;6098;49.004;8.372;2023-05-11T21:47:13;100150.08;;;14.41;86.43
12073;BME280;6098;49.004;8.372;2023-05-11T22:02:05;100144.41;;;14.40;86.21
12073;BME280;6098;49.004;8.372;2023-05-11T22:16:56;100138.59;;;14.24;86.54
12073;BME280;6098;49.004;8.372;2023-05-11T22:31:48;100132.58;;;14.21;88.49
12073;BME280;6098;49.004;8.372;2023-05-11T22:46:39;100140.09;;;14.14;90.39
12073;BME280;6098;49.004;8.372;2023-05-11T23:01:32;100144.36;;;14.17;90.87
12073;BME280;6098;49.004;8.372;2023-05-11T23:16:24;100142.28;;;13.99;91.13
12073;BME280;6098;49.004;8.372;2023-05-11T23:31:16;100142.50;;;13.96;93.58
12073;BME280;6098;49.004;8.372;2023-05-11T23:46:07;100134.72;;;13.84;95.01
